sensor_id;sensor_type;location;lat;lon;timestamp;pressure;altitude;pressure_sealevel;temperature;humidity
22440;BME280;11387;51.612;7.210;2023-05-22T00:01:06;100561.81;;;16.23;100.00
22440;BME280;11387;51.612;7.210;2023-05-22T00:03:35;100570.56;;;16.25;100.00
22440;BME280;11387;51.612;7.210;2023-05-22T00:06:03;100567.66;;;16.22;100.00
22440;BME280;11387;51.612;7.210;2023-05-22T00:08:32;100567.56;;;16.18;100.00
22440;BME280;11387;51.612;7.210;2023-05-22T00:11:00;100572.81;;;16.11;100.00
22440;BME280;11387;51.612;7.210;2023-05-22T00:13:45;100566.34;;;16.07;100.00
22440;BME280;11387;51.612;7.210;2023-05-22T00:16:13;100565.25;;;15.99;100.00
22440;BME280;11387;51.612;7.210;2023-05-22T00:18:41;100562.34;;;15.96;100.00
22440;BME280;11387;51.612;7.210;2023-05-22T00:21:10;100563.50;;;15.95;100.00
22440;BME280;11387;51.612;7.210;2023-05-22T00:23:39;100558.63;;;15.92;100.00
22440;BME280;11387;51.612;7.210;2023-05-22T00:26:08;100553.25;;;15.95;100.00
22440;BME280;11387;51.612;7.210;2023-05-22T00:28:37;100551.97;;;15.93;100.00
22440;BME280;11387;51.612;7.210;2023-05-22T00:31:06;100556.34;;;15.94;100.00
22440;BME280;11387;51.612;7.210;2023-05-22T00:33:35;100548.06;;;15.94;100.00
22440;BME280;11387;51.612;7.210;2023-05-22T00:36:04;100552.47;;;15.95;100.00
22440;BME280;11387;51.612;7.210;2023-05-22T00:38:33;100555.69;;;15.97;100.00
22440;BME280;11387;51.612;7.210;2023-05-22T00:41:03;100544.50;;;15.93;100.00
22440;BME280;11387;51.612;7.210;2023-05-22T00:43:32;100543.72;;;15.93;100.00
22440;BME280;11387;51.612;7.210;2023-05-22T00:46:00;100549.22;;;15.93;100.00
22440;BME280;11387;51.612;7.210;2023-05-22T00:48:30;100541.41;;;15.95;100.00
22440;BME280;11387;51.612;7.210;2023-05-22T00:50:58;100546.94;;;15.95;100.00
22440;BME280;11387;51.612;7.210;2023-05-22T00:53:27;100542.09;;;15.92;100.00
22440;BME280;11387;51.612;7.210;2023-05-22T00:55:57;100539.81;;;15.94;100.00
22440;BME280;11387;51.612;7.210;2023-05-22T00:58:26;100538.19;;;15.93;100.00
22440;BME280;11387;51.612;7.210;2023-05-22T01:00:54;100539.34;;;15.92;100.00
22440;BME280;11387;51.612;7.210;2023-05-22T01:03:23;100533.38;;;15.90;100.00
22440;BME280;11387;51.612;7.210;2023-05-22T01:05:55;100532.91;;;15.88;100.00
22440;BME280;11387;51.612;7.210;2023-05-22T01:08:23;100541.28;;;15.91;100.00
22440;BME280;11387;51.612;7.210;2023-05-22T01:10:53;100536.81;;;15.87;100.00
22440;BME280;11387;51.612;7.210;2023-05-22T01:13:26;100530.53;;;15.77;100.00
22440;BME280;11387;51.612;7.210;2023-05-22T01:15:58;100527.00;;;15.68;100.00
22440;BME280;11387;51.612;7.210;2023-05-22T01:18:30;100524.44;;;15.63;100.00
22440;BME280;11387;51.612;7.210;2023-05-22T01:21:02;100531.81;;;15.59;100.00
22440;BME280;11387;51.612;7.210;2023-05-22T01:23:46;100534.09;;;15.57;100.00
22440;BME280;11387;51.612;7.210;2023-05-22T01:26:41;100528.72;;;15.52;100.00
22440;BME280;11387;51.612;7.210;2023-05-22T01:29:27;100530.34;;;15.53;100.00
22440;BME280;11387;51.612;7.210;2023-05-22T01:31:57;100526.63;;;15.49;100.00
22440;BME280;11387;51.612;7.210;2023-05-22T01:34:28;100526.16;;;15.47;100.00
22440;BME280;11387;51.612;7.210;2023-05-22T01:36:56;100526.81;;;15.44;100.00
22440;BME280;11387;51.612;7.210;2023-05-22T01:39:26;100525.19;;;15.43;100.00
22440;BME280;11387;51.612;7.210;2023-05-22T01:41:55;100530.44;;;15.36;100.00
22440;BME280;11387;51.612;7.210;2023-05-22T01:44:24;100530.09;;;15.37;100.00
22440;BME280;11387;51.612;7.210;2023-05-22T01:46:58;100522.81;;;15.33;100.00
22440;BME280;11387;51.612;7.210;2023-05-22T01:49:31;100526.72;;;15.32;100.00
22440;BME280;11387;51.612;7.210;2023-05-22T01:52:02;100527.19;;;15.34;100.00
22440;BME280;11387;51.612;7.210;2023-05-22T01:54:35;100527.84;;;15.31;100.00
22440;BME280;11387;51.612;7.210;2023-05-22T01:57:06;100530.13;;;15.29;100.00
22440;BME280;11387;51.612;7.210;2023-05-22T01:59:40;100519.81;;;15.26;100.00
22440;BME280;11387;51.612;7.210;2023-05-22T02:02:14;100525.31;;;15.26;100.00
22440;BME280;11387;51.612;7.210;2023-05-22T02:04:44;100522.56;;;15.26;100.00
22440;BME280;11387;51.612;7.210;2023-05-22T02:07:13;100526.59;;;15.28;100.00
22440;BME280;11387;51.612;7.210;2023-05-22T02:09:41;100525.44;;;15.29;100.00
22440;BME280;11387;51.612;7.210;2023-05-22T02:12:13;100523.47;;;15.30;100.00
22440;BME280;11387;51.612;7.210;2023-05-22T02:14:41;100522.34;;;15.31;100.00
22440;BME280;11387;51.612;7.210;2023-05-22T02:17:10;100520.06;;;15.33;100.00
22440;BME280;11387;51.612;7.210;2023-05-22T02:19:40;100525.25;;;15.34;100.00
22440;BME280;11387;51.612;7.210;2023-05-22T02:22:08;100527.00;;;15.39;100.00
22440;BME280;11387;51.612;7.210;2023-05-22T02:24:40;100527.19;;;15.34;100.00
22440;BME280;11387;51.612;7.210;2023-05-22T02:27:09;100530.28;;;15.32;100.00
22440;BME280;11387;51.612;7.210;2023-05-22T02:29:37;100531.22;;;15.36;100.00
22440;BME280;11387;51.612;7.210;2023-05-22T02:32:06;100528.16;;;15.38;100.00
22440;BME280;11387;51.612;7.210;2023-05-22T02:34:35;100521.69;;;15.34;100.00
22440;BME280;11387;51.612;7.210;2023-05-22T02:37:05;100515.50;;;15.37;100.00
22440;BME280;11387;51.612;7.210;2023-05-22T02:39:34;100508.56;;;15.31;100.00
22440;BME280;11387;51.612;7.210;2023-05-22T02:42:02;100498.88;;;15.25;100.00
22440;BME280;11387;51.612;7.210;2023-05-22T02:44:31;100492.09;;;15.22;100.00
22440;BME280;11387;51.612;7.210;2023-05-22T02:46:59;100484.81;;;15.18;100.00
22440;BME280;11387;51.612;7.210;2023-05-22T02:49:27;100486.16;;;15.11;100.00
22440;BME280;11387;51.612;7.210;2023-05-22T02:51:56;100484.53;;;15.10;100.00
22440;BME280;11387;51.612;7.210;2023-05-22T02:54:26;100487.75;;;15.12;100.00
22440;BME280;11387;51.612;7.210;2023-05-22T02:56:54;100471.22;;;15.12;100.00
22440;BME280;11387;51.612;7.210;2023-05-22T02:59:23;100468.81;;;15.11;100.00
22440;BME280;11387;51.612;7.210;2023-05-22T03:01:51;100466.09;;;15.02;100.00
22440;BME280;11387;51.612;7.210;2023-05-22T03:04:20;100467.56;;;15.00;100.00
22440;BME280;11387;51.612;7.210;2023-05-22T03:07:10;100466.63;;;14.96;100.00
22440;BME280;11387;51.612;7.210;2023-05-22T03:09:40;100470.84;;;14.93;100.00
22440;BME280;11387;51.612;7.210;2023-05-22T03:12:09;100467.13;;;14.89;100.00
22440;BME280;11387;51.612;7.210;2023-05-22T03:14:37;100459.53;;;14.86;100.00
22440;BME280;11387;51.612;7.210;2023-05-22T03:17:05;100465.22;;;14.81;100.00
22440;BME280;11387;51.612;7.210;2023-05-22T03:19:33;100466.69;;;14.78;100.00
22440;BME280;11387;51.612;7.210;2023-05-22T03:22:02;100468.47;;;14.74;100.00
22440;BME280;11387;51.612;7.210;2023-05-22T03:24:30;100467.19;;;14.72;100.00
22440;BME280;11387;51.612;7.210;2023-05-22T03:27:00;100468.34;;;14.71;100.00
22440;BME280;11387;51.612;7.210;2023-05-22T03:29:28;100464.59;;;14.75;100.00
22440;BME280;11387;51.612;7.210;2023-05-22T03:31:57;100466.38;;;14.71;100.00
22440;BME280;11387;51.612;7.210;2023-05-22T03:34:25;100470.97;;;14.67;100.00
22440;BME280;11387;51.612;7.210;2023-05-22T03:36:56;100468.53;;;14.66;100.00
22440;BME280;11387;51.612;7.210;2023-05-22T03:39:24;100464.16;;;14.65;100.00
22440;BME280;11387;51.612;7.210;2023-05-22T03:41:52;100461.25;;;14.61;100.00
22440;BME280;11387;51.612;7.210;2023-05-22T03:44:23;100461.91;;;14.58;100.00
22440;BME280;11387;51.612;7.210;2023-05-22T03:46:51;100464.66;;;14.58;100.00
22440;BME280;11387;51.612;7.210;2023-05-22T03:49:19;100458.84;;;14.60;100.00
22440;BME280;11387;51.612;7.210;2023-05-22T03:51:48;100461.91;;;14.58;100.00
22440;BME280;11387;51.612;7.210;2023-05-22T03:54:17;100453.19;;;14.56;100.00
22440;BME280;11387;51.612;7.210;2023-05-22T03:56:45;100457.69;;;14.61;100.00
22440;BME280;11387;51.612;7.210;2023-05-22T03:59:17;100464.66;;;14.67;100.00
22440;BME280;11387;51.612;7.210;2023-05-22T04:01:48;100452.63;;;14.71;100.00
22440;BME280;11387;51.612;7.210;2023-05-22T04:04:18;100455.53;;;14.75;100.00
22440;BME280;11387;51.612;7.210;2023-05-22T04:06:46;100453.25;;;14.77;100.00
22440;BME280;11387;51.612;7.210;2023-05-22T04:09:15;100458.09;;;14.80;100.00
22440;BME280;11387;51.612;7.210;2023-05-22T04:11:44;100451.94;;;14.83;100.00
22440;BME280;11387;51.612;7.210;2023-05-22T04:14:17;100461.34;;;14.82;100.00
22440;BME280;11387;51.612;7.210;2023-05-22T04:16:45;100466.50;;;14.83;100.00
22440;BME280;11387;51.612;7.210;2023-05-22T04:19:17;100461.81;;;14.84;100.00
22440;BME280;11387;51.612;7.210;2023-05-22T04:21:47;100460.81;;;14.89;100.00
22440;BME280;11387;51.612;7.210;2023-05-22T04:24:16;100461.25;;;14.99;100.00
22440;BME280;11387;51.612;7.210;2023-05-22T04:26:45;100465.75;;;15.04;100.00
22440;BME280;11387;51.612;7.210;2023-05-22T04:29:14;100470.94;;;15.05;100.00
22440;BME280;11387;51.612;7.210;2023-05-22T04:31:42;100468.66;;;15.07;100.00
22440;BME280;11387;51.612;7.210;2023-05-22T04:34:11;100462.00;;;15.08;100.00
22440;BME280;11387;51.612;7.210;2023-05-22T04:36:41;100469.59;;;15.11;100.00
22440;BME280;11387;51.612;7.210;2023-05-22T04:39:11;100464.38;;;15.19;100.00
22440;BME280;11387;51.612;7.210;2023-05-22T04:41:54;100464.69;;;15.26;100.00
22440;BME280;11387;51.612;7.210;2023-05-22T04:44:24;100470.44;;;15.33;100.00
22440;BME280;11387;51.612;7.210;2023-05-22T04:46:53;100471.53;;;15.40;100.00
22440;BME280;11387;51.612;7.210;2023-05-22T04:49:24;100469.88;;;15.48;100.00
22440;BME280;11387;51.612;7.210;2023-05-22T04:51:54;100463.84;;;15.55;100.00
22440;BME280;11387;51.612;7.210;2023-05-22T04:54:23;100467.69;;;15.62;100.00
22440;BME280;11387;51.612;7.210;2023-05-22T04:56:53;100460.81;;;15.68;100.00
22440;BME280;11387;51.612;7.210;2023-05-22T04:59:23;100457.06;;;15.73;100.00
22440;BME280;11387;51.612;7.210;2023-05-22T05:01:53;100464.31;;;15.77;100.00
22440;BME280;11387;51.612;7.210;2023-05-22T05:04:22;100462.97;;;15.83;100.00
22440;BME280;11387;51.612;7.210;2023-05-22T05:06:50;100471.06;;;15.89;100.00
22440;BME280;11387;51.612;7.210;2023-05-22T05:09:21;100466.72;;;16.00;100.00
22440;BME280;11387;51.612;7.210;2023-05-22T05:11:49;100470.22;;;16.09;100.00
22440;BME280;11387;51.612;7.210;2023-05-22T05:14:20;100474.91;;;16.08;100.00
22440;BME280;11387;51.612;7.210;2023-05-22T05:16:50;100469.19;;;16.13;100.00
22440;BME280;11387;51.612;7.210;2023-05-22T05:19:20;100480.13;;;16.22;100.00
22440;BME280;11387;51.612;7.210;2023-05-22T05:21:49;100482.69;;;16.27;100.00
22440;BME280;11387;51.612;7.210;2023-05-22T05:24:22;100476.16;;;16.32;100.00
22440;BME280;11387;51.612;7.210;2023-05-22T05:26:51;100479.97;;;16.39;100.00
22440;BME280;11387;51.612;7.210;2023-05-22T05:29:19;100484.81;;;16.42;100.00
22440;BME280;11387;51.612;7.210;2023-05-22T05:31:49;100482.75;;;16.51;100.00
22440;BME280;11387;51.612;7.210;2023-05-22T05:34:18;100483.47;;;16.48;100.00
22440;BME280;11387;51.612;7.210;2023-05-22T05:36:46;100489.31;;;16.59;100.00
22440;BME280;11387;51.612;7.210;2023-05-22T05:39:15;100488.50;;;16.79;100.00
22440;BME280;11387;51.612;7.210;2023-05-22T05:41:45;100490.91;;;16.93;100.00
22440;BME280;11387;51.612;7.210;2023-05-22T05:44:14;100491.63;;;17.02;100.00
22440;BME280;11387;51.612;7.210;2023-05-22T05:46:42;100488.16;;;17.17;100.00
22440;BME280;11387;51.612;7.210;2023-05-22T05:49:23;100490.22;;;17.33;100.00
22440;BME280;11387;51.612;7.210;2023-05-22T05:51:55;100494.00;;;17.52;100.00
22440;BME280;11387;51.612;7.210;2023-05-22T05:54:24;100498.03;;;17.55;99.09
22440;BME280;11387;51.612;7.210;2023-05-22T05:56:57;100495.47;;;17.62;98.02
22440;BME280;11387;51.612;7.210;2023-05-22T05:59:26;100502.72;;;17.79;96.47
22440;BME280;11387;51.612;7.210;2023-05-22T06:01:54;100495.31;;;17.95;96.83
22440;BME280;11387;51.612;7.210;2023-05-22T06:04:24;100498.81;;;18.08;93.46
22440;BME280;11387;51.612;7.210;2023-05-22T06:06:54;100499.22;;;18.22;92.77
22440;BME280;11387;51.612;7.210;2023-05-22T06:09:22;100505.16;;;18.36;91.87
22440;BME280;11387;51.612;7.210;2023-05-22T06:11:51;100498.19;;;18.42;89.06
22440;BME280;11387;51.612;7.210;2023-05-22T06:14:20;100497.75;;;18.40;88.63
22440;BME280;11387;51.612;7.210;2023-05-22T06:16:49;100501.41;;;18.44;88.70
22440;BME280;11387;51.612;7.210;2023-05-22T06:19:17;100500.25;;;18.45;88.22
22440;BME280;11387;51.612;7.210;2023-05-22T06:21:46;100504.38;;;18.64;88.05
22440;BME280;11387;51.612;7.210;2023-05-22T06:24:17;100499.38;;;18.85;87.34
22440;BME280;11387;51.612;7.210;2023-05-22T06:26:45;100494.78;;;19.08;86.95
22440;BME280;11387;51.612;7.210;2023-05-22T06:29:14;100495.75;;;19.32;85.55
22440;BME280;11387;51.612;7.210;2023-05-22T06:31:44;100504.22;;;19.39;83.95
22440;BME280;11387;51.612;7.210;2023-05-22T06:34:13;100499.41;;;19.52;82.51
22440;BME280;11387;51.612;7.210;2023-05-22T06:36:41;100499.81;;;19.69;82.62
22440;BME280;11387;51.612;7.210;2023-05-22T06:39:15;100502.28;;;19.74;81.02
22440;BME280;11387;51.612;7.210;2023-05-22T06:41:47;100502.59;;;19.89;80.89
22440;BME280;11387;51.612;7.210;2023-05-22T06:44:17;100508.94;;;19.89;78.96
22440;BME280;11387;51.612;7.210;2023-05-22T06:46:48;100497.78;;;19.86;78.70
22440;BME280;11387;51.612;7.210;2023-05-22T06:49:16;100505.75;;;19.87;78.06
22440;BME280;11387;51.612;7.210;2023-05-22T06:51:45;100516.78;;;19.83;79.11
22440;BME280;11387;51.612;7.210;2023-05-22T06:54:13;100505.25;;;20.01;78.79
22440;BME280;11387;51.612;7.210;2023-05-22T06:56:42;100517.50;;;20.19;78.64
22440;BME280;11387;51.612;7.210;2023-05-22T06:59:10;100514.50;;;20.66;77.45
22440;BME280;11387;51.612;7.210;2023-05-22T07:01:39;100513.25;;;21.09;75.79
22440;BME280;11387;51.612;7.210;2023-05-22T07:04:09;100520.25;;;21.49;73.78
22440;BME280;11387;51.612;7.210;2023-05-22T07:06:39;100523.78;;;21.46;71.25
22440;BME280;11387;51.612;7.210;2023-05-22T07:09:07;100519.41;;;21.45;70.88
22440;BME280;11387;51.612;7.210;2023-05-22T07:11:37;100524.34;;;21.29;71.16
22440;BME280;11387;51.612;7.210;2023-05-22T07:14:05;100524.06;;;21.14;72.21
22440;BME280;11387;51.612;7.210;2023-05-22T07:16:34;100521.28;;;21.37;72.71
22440;BME280;11387;51.612;7.210;2023-05-22T07:19:03;100528.59;;;21.75;71.30
22440;BME280;11387;51.612;7.210;2023-05-22T07:21:34;100520.84;;;22.18;70.17
22440;BME280;11387;51.612;7.210;2023-05-22T07:24:02;100519.84;;;22.74;69.05
22440;BME280;11387;51.612;7.210;2023-05-22T07:26:34;100529.09;;;23.26;65.96
22440;BME280;11387;51.612;7.210;2023-05-22T07:29:03;100520.56;;;23.56;64.06
22440;BME280;11387;51.612;7.210;2023-05-22T07:31:31;100527.69;;;23.46;64.13
22440;BME280;11387;51.612;7.210;2023-05-22T07:34:00;100528.38;;;23.91;63.69
22440;BME280;11387;51.612;7.210;2023-05-22T07:36:28;100531.00;;;24.38;62.21
22440;BME280;11387;51.612;7.210;2023-05-22T07:38:59;100526.66;;;24.59;59.81
22440;BME280;11387;51.612;7.210;2023-05-22T07:41:27;100529.94;;;24.96;59.66
22440;BME280;11387;51.612;7.210;2023-05-22T07:43:56;100527.94;;;25.07;57.75
22440;BME280;11387;51.612;7.210;2023-05-22T07:46:24;100523.91;;;24.73;57.88
22440;BME280;11387;51.612;7.210;2023-05-22T07:48:54;100527.38;;;24.27;59.28
22440;BME280;11387;51.612;7.210;2023-05-22T07:51:23;100525.03;;;24.43;59.93
22440;BME280;11387;51.612;7.210;2023-05-22T07:53:52;100525.50;;;24.74;60.20
22440;BME280;11387;51.612;7.210;2023-05-22T07:56:22;100523.56;;;25.24;58.85
22440;BME280;11387;51.612;7.210;2023-05-22T07:58:51;100525.47;;;25.98;56.84
22440;BME280;11387;51.612;7.210;2023-05-22T08:01:21;100529.41;;;26.88;54.60
22440;BME280;11387;51.612;7.210;2023-05-22T08:03:49;100525.31;;;27.89;50.81
22440;BME280;11387;51.612;7.210;2023-05-22T08:06:18;100529.31;;;28.83;48.13
22440;BME280;11387;51.612;7.210;2023-05-22T08:08:49;100524.94;;;29.75;44.80
22440;BME280;11387;51.612;7.210;2023-05-22T08:11:19;100524.78;;;30.62;44.13
22440;BME280;11387;51.612;7.210;2023-05-22T08:13:49;100520.47;;;31.55;41.79
22440;BME280;11387;51.612;7.210;2023-05-22T08:16:17;100524.94;;;31.85;40.29
22440;BME280;11387;51.612;7.210;2023-05-22T08:18:45;100526.59;;;32.11;39.13
22440;BME280;11387;51.612;7.210;2023-05-22T08:21:14;100522.66;;;32.63;37.65
22440;BME280;11387;51.612;7.210;2023-05-22T08:23:42;100527.75;;;33.06;36.94
22440;BME280;11387;51.612;7.210;2023-05-22T08:26:11;100533.16;;;33.86;35.79
22440;BME280;11387;51.612;7.210;2023-05-22T08:28:39;100525.50;;;34.17;34.16
22440;BME280;11387;51.612;7.210;2023-05-22T08:31:11;100521.13;;;34.87;34.77
22440;BME280;11387;51.612;7.210;2023-05-22T08:33:40;100519.41;;;35.75;32.88
22440;BME280;11387;51.612;7.210;2023-05-22T08:36:08;100528.28;;;35.68;32.22
22440;BME280;11387;51.612;7.210;2023-05-22T08:38:37;100517.84;;;35.65;31.30
22440;BME280;11387;51.612;7.210;2023-05-22T08:41:05;100525.75;;;35.98;30.27
22440;BME280;11387;51.612;7.210;2023-05-22T08:43:34;100517.84;;;35.84;30.90
22440;BME280;11387;51.612;7.210;2023-05-22T08:46:03;100522.69;;;36.20;29.98
22440;BME280;11387;51.612;7.210;2023-05-22T08:48:36;100528.50;;;36.53;29.58
22440;BME280;11387;51.612;7.210;2023-05-22T08:51:05;100530.16;;;37.10;28.58
22440;BME280;11387;51.612;7.210;2023-05-22T08:53:35;100517.63;;;37.41;28.36
22440;BME280;11387;51.612;7.210;2023-05-22T08:56:04;100518.88;;;37.16;28.87
22440;BME280;11387;51.612;7.210;2023-05-22T08:58:33;100522.34;;;37.44;29.00
22440;BME280;11387;51.612;7.210;2023-05-22T09:01:03;100526.06;;;38.27;26.99
22440;BME280;11387;51.612;7.210;2023-05-22T09:03:32;100528.06;;;38.51;27.60
22440;BME280;11387;51.612;7.210;2023-05-22T09:06:03;100517.13;;;38.99;26.12
22440;BME280;11387;51.612;7.210;2023-05-22T09:08:36;100528.41;;;39.23;25.66
22440;BME280;11387;51.612;7.210;2023-05-22T09:11:08;100527.09;;;39.24;26.10
22440;BME280;11387;51.612;7.210;2023-05-22T09:13:37;100523.19;;;39.42;24.81
22440;BME280;11387;51.612;7.210;2023-05-22T09:16:06;100528.00;;;39.50;24.26
22440;BME280;11387;51.612;7.210;2023-05-22T09:18:35;100526.63;;;40.12;24.48
22440;BME280;11387;51.612;7.210;2023-05-22T09:21:06;100514.28;;;40.58;24.00
22440;BME280;11387;51.612;7.210;2023-05-22T09:23:48;100529.25;;;40.36;23.77
22440;BME280;11387;51.612;7.210;2023-05-22T09:26:17;100517.81;;;39.69;24.10
22440;BME280;11387;51.612;7.210;2023-05-22T09:28:46;100516.03;;;39.72;23.62
22440;BME280;11387;51.612;7.210;2023-05-22T09:31:14;100521.53;;;39.96;23.59
22440;BME280;11387;51.612;7.210;2023-05-22T09:33:43;100517.84;;;40.21;23.46
22440;BME280;11387;51.612;7.210;2023-05-22T09:36:13;100512.44;;;40.55;23.47
22440;BME280;11387;51.612;7.210;2023-05-22T09:38:42;100513.81;;;40.96;22.49
22440;BME280;11387;51.612;7.210;2023-05-22T09:41:10;100503.84;;;40.92;21.82
22440;BME280;11387;51.612;7.210;2023-05-22T09:43:38;100509.69;;;41.09;22.37
22440;BME280;11387;51.612;7.210;2023-05-22T09:46:16;100512.56;;;41.62;21.71
22440;BME280;11387;51.612;7.210;2023-05-22T09:48:45;100497.56;;;41.36;22.33
22440;BME280;11387;51.612;7.210;2023-05-22T09:51:19;100511.44;;;40.95;22.66
22440;BME280;11387;51.612;7.210;2023-05-22T09:53:49;100504.16;;;40.68;22.73
22440;BME280;11387;51.612;7.210;2023-05-22T09:56:18;100503.56;;;41.38;22.96
22440;BME280;11387;51.612;7.210;2023-05-22T09:59:04;100507.72;;;42.02;21.01
22440;BME280;11387;51.612;7.210;2023-05-22T10:01:36;100504.88;;;42.52;21.11
22440;BME280;11387;51.612;7.210;2023-05-22T10:04:05;100499.06;;;41.20;22.33
22440;BME280;11387;51.612;7.210;2023-05-22T10:06:54;100507.78;;;40.94;23.36
22440;BME280;11387;51.612;7.210;2023-05-22T10:09:24;100504.91;;;40.94;23.64
22440;BME280;11387;51.612;7.210;2023-05-22T10:11:57;100497.13;;;40.06;24.40
22440;BME280;11387;51.612;7.210;2023-05-22T10:14:26;100508.16;;;38.12;26.96
22440;BME280;11387;51.612;7.210;2023-05-22T10:16:57;100509.88;;;37.95;27.24
22440;BME280;11387;51.612;7.210;2023-05-22T10:19:28;100512.28;;;38.26;26.83
22440;BME280;11387;51.612;7.210;2023-05-22T10:22:00;100499.00;;;38.87;25.55
22440;BME280;11387;51.612;7.210;2023-05-22T10:24:30;100511.81;;;39.47;25.18
22440;BME280;11387;51.612;7.210;2023-05-22T10:26:59;100505.88;;;40.23;24.57
22440;BME280;11387;51.612;7.210;2023-05-22T10:29:29;100507.94;;;39.70;24.87
22440;BME280;11387;51.612;7.210;2023-05-22T10:32:05;100497.38;;;41.02;23.84
22440;BME280;11387;51.612;7.210;2023-05-22T10:34:37;100502.69;;;41.75;23.14
22440;BME280;11387;51.612;7.210;2023-05-22T10:37:24;100496.78;;;42.56;21.79
22440;BME280;11387;51.612;7.210;2023-05-22T10:39:59;100499.34;;;41.28;22.74
22440;BME280;11387;51.612;7.210;2023-05-22T10:42:32;100502.38;;;39.41;24.78
22440;BME280;11387;51.612;7.210;2023-05-22T10:45:01;100491.34;;;40.00;24.55
22440;BME280;11387;51.612;7.210;2023-05-22T10:47:31;100495.06;;;40.69;23.30
22440;BME280;11387;51.612;7.210;2023-05-22T10:50:05;100497.53;;;40.82;22.85
22440;BME280;11387;51.612;7.210;2023-05-22T10:52:35;100494.97;;;41.38;23.25
22440;BME280;11387;51.612;7.210;2023-05-22T10:55:18;100485.47;;;41.86;22.04
22440;BME280;11387;51.612;7.210;2023-05-22T10:57:49;100494.75;;;41.47;21.92
22440;BME280;11387;51.612;7.210;2023-05-22T11:00:21;100487.25;;;41.72;21.62
22440;BME280;11387;51.612;7.210;2023-05-22T11:02:55;100484.84;;;40.00;23.47
22440;BME280;11387;51.612;7.210;2023-05-22T11:05:50;100489.66;;;40.77;22.84
22440;BME280;11387;51.612;7.210;2023-05-22T11:08:36;100482.25;;;39.56;23.97
22440;BME280;11387;51.612;7.210;2023-05-22T11:11:08;100490.06;;;39.35;24.08
22440;BME280;11387;51.612;7.210;2023-05-22T11:13:39;100489.50;;;40.55;24.17
22440;BME280;11387;51.612;7.210;2023-05-22T11:16:13;100483.69;;;38.90;25.11
22440;BME280;11387;51.612;7.210;2023-05-22T11:18:43;100481.28;;;38.54;26.49
22440;BME280;11387;51.612;7.210;2023-05-22T11:21:13;100472.66;;;39.85;24.99
22440;BME280;11387;51.612;7.210;2023-05-22T11:23:44;100481.19;;;38.98;24.88
22440;BME280;11387;51.612;7.210;2023-05-22T11:26:21;100478.50;;;37.32;26.44
22440;BME280;11387;51.612;7.210;2023-05-22T11:28:54;100477.19;;;38.40;25.56
22440;BME280;11387;51.612;7.210;2023-05-22T11:31:22;100475.59;;;39.44;23.94
22440;BME280;11387;51.612;7.210;2023-05-22T11:33:52;100472.22;;;38.70;26.02
22440;BME280;11387;51.612;7.210;2023-05-22T11:36:21;100458.47;;;38.09;26.07
22440;BME280;11387;51.612;7.210;2023-05-22T11:38:55;100470.97;;;38.41;25.97
22440;BME280;11387;51.612;7.210;2023-05-22T11:41:24;100461.91;;;38.58;25.86
22440;BME280;11387;51.612;7.210;2023-05-22T11:43:52;100463.66;;;38.90;25.54
22440;BME280;11387;51.612;7.210;2023-05-22T11:46:20;100455.50;;;38.04;25.18
22440;BME280;11387;51.612;7.210;2023-05-22T11:48:49;100457.72;;;37.56;27.04
22440;BME280;11387;51.612;7.210;2023-05-22T11:51:18;100466.75;;;38.37;26.47
22440;BME280;11387;51.612;7.210;2023-05-22T11:53:47;100454.53;;;38.36;28.00
22440;BME280;11387;51.612;7.210;2023-05-22T11:56:18;100457.47;;;38.27;25.82
22440;BME280;11387;51.612;7.210;2023-05-22T11:58:48;100462.44;;;36.96;27.37
22440;BME280;11387;51.612;7.210;2023-05-22T12:01:16;100451.84;;;37.12;27.53
22440;BME280;11387;51.612;7.210;2023-05-22T12:03:44;100452.28;;;36.62;28.00
22440;BME280;11387;51.612;7.210;2023-05-22T12:06:13;100447.13;;;36.00;30.43
22440;BME280;11387;51.612;7.210;2023-05-22T12:08:43;100445.31;;;36.21;29.46
22440;BME280;11387;51.612;7.210;2023-05-22T12:11:12;100452.50;;;34.67;32.09
22440;BME280;11387;51.612;7.210;2023-05-22T12:13:43;100453.97;;;32.84;34.81
22440;BME280;11387;51.612;7.210;2023-05-22T12:16:18;100447.97;;;32.69;36.24
22440;BME280;11387;51.612;7.210;2023-05-22T12:18:50;100451.00;;;34.44;33.48
22440;BME280;11387;51.612;7.210;2023-05-22T12:21:19;100443.97;;;35.80;30.75
22440;BME280;11387;51.612;7.210;2023-05-22T12:23:47;100442.25;;;37.48;28.98
22440;BME280;11387;51.612;7.210;2023-05-22T12:26:16;100455.06;;;38.20;27.78
22440;BME280;11387;51.612;7.210;2023-05-22T12:28:46;100441.94;;;37.84;28.69
22440;BME280;11387;51.612;7.210;2023-05-22T12:31:18;100449.41;;;38.40;28.31
22440;BME280;11387;51.612;7.210;2023-05-22T12:33:47;100439.66;;;38.03;28.20
22440;BME280;11387;51.612;7.210;2023-05-22T12:36:16;100444.84;;;39.45;25.62
22440;BME280;11387;51.612;7.210;2023-05-22T12:38:44;100444.09;;;39.24;25.86
22440;BME280;11387;51.612;7.210;2023-05-22T12:41:13;100450.41;;;39.48;26.34
22440;BME280;11387;51.612;7.210;2023-05-22T12:43:41;100443.59;;;40.55;24.62
22440;BME280;11387;51.612;7.210;2023-05-22T12:46:11;100442.56;;;40.95;23.87
22440;BME280;11387;51.612;7.210;2023-05-22T12:48:41;100445.47;;;40.26;24.81
22440;BME280;11387;51.612;7.210;2023-05-22T12:51:09;100434.94;;;39.20;26.22
22440;BME280;11387;51.612;7.210;2023-05-22T12:53:52;100434.38;;;38.60;27.08
22440;BME280;11387;51.612;7.210;2023-05-22T12:56:25;100438.94;;;39.94;25.90
22440;BME280;11387;51.612;7.210;2023-05-22T12:58:55;100436.41;;;40.02;25.46
22440;BME280;11387;51.612;7.210;2023-05-22T13:01:25;100444.66;;;38.37;26.91